Time;durP1;ratioP1;P1;durP2;ratioP2;P2;SDS_P1;SDS_P2;PMS_P1;PMS_P2;Temp;Humidity;BMP_temperature;BMP_pressure;BME280_temperature;BME280_humidity;BME280_pressure;Samples;Min_cycle;Max_cycle;Signal;HPM_P1;HPM_P2
2023/12/18 00:00:34;;;;;;;15.40;8.18;;;;;;;16.84;52.26;103297.06;5030431;28;20136;-37
2023/12/18 00:03:01;;;;;;;12.32;7.55;;;;;;;16.82;52.54;103294.47;5030181;28;20346;-37
2023/12/18 00:05:28;;;;;;;12.30;7.88;;;;;;;16.82;52.24;103296.31;5031886;28;20054;-37
2023/12/18 00:07:55;;;;;;;14.32;8.63;;;;;;;16.81;52.33;103292.75;5035076;28;20103;-38
2023/12/18 00:10:21;;;;;;;14.05;7.82;;;;;;;16.80;51.85;103295.50;5032544;28;20053;-37
2023/12/18 00:12:48;;;;;;;12.98;7.95;;;;;;;16.79;52.49;103302.69;5027440;28;20089;-36
2023/12/18 00:15:15;;;;;;;14.38;7.47;;;;;;;16.76;52.45;103301.06;5030699;28;20049;-37
2023/12/18 00:17:41;;;;;;;13.95;7.40;;;;;;;16.76;51.75;103285.00;5027176;28;20140;-37
2023/12/18 00:20:09;;;;;;;13.10;8.02;;;;;;;16.75;51.76;103293.94;5027113;28;20057;-37
2023/12/18 00:22:35;;;;;;;12.77;7.80;;;;;;;16.75;52.16;103293.94;5023527;28;20081;-36
2023/12/18 00:25:02;;;;;;;10.45;7.07;;;;;;;16.74;52.34;103292.22;5028430;28;20046;-35
2023/12/18 00:27:29;;;;;;;9.80;6.82;;;;;;;16.73;52.10;103290.50;5024970;28;20045;-35
2023/12/18 00:29:55;;;;;;;10.65;6.63;;;;;;;16.74;52.36;103283.34;5027500;28;20049;-37
2023/12/18 00:32:22;;;;;;;14.43;7.28;;;;;;;16.73;51.87;103282.47;5027611;28;20099;-37
2023/12/18 00:34:48;;;;;;;10.73;7.40;;;;;;;16.72;52.25;103274.47;5026980;28;20065;-42
2023/12/18 00:37:15;;;;;;;11.00;6.50;;;;;;;16.71;52.45;103276.28;5030857;28;20516;-37
2023/12/18 00:39:42;;;;;;;11.98;7.60;;;;;;;16.70;52.08;103277.25;5031920;28;20426;-41
2023/12/18 00:42:08;;;;;;;11.73;7.50;;;;;;;16.70;52.05;103271.03;5027085;28;20060;-36
2023/12/18 00:44:35;;;;;;;10.20;6.63;;;;;;;16.69;52.10;103275.53;5027679;28;20080;-36
2023/12/18 00:47:02;;;;;;;12.57;6.80;;;;;;;16.68;52.22;103272.91;5027619;28;20068;-41
2023/12/18 00:49:32;;;;;;;11.48;7.18;;;;;;;16.67;52.32;103274.72;5026320;28;20758;-42
2023/12/18 00:51:59;;;;;;;13.13;7.68;;;;;;;16.67;51.61;103271.19;5027500;28;20049;-41
2023/12/18 00:54:26;;;;;;;12.23;7.30;;;;;;;16.67;51.87;103279.22;5029278;28;20088;-42
2023/12/18 00:56:53;;;;;;;12.70;6.63;;;;;;;16.65;51.74;103276.66;5028358;28;20176;-41
2023/12/18 00:59:19;;;;;;;11.35;6.68;;;;;;;16.66;52.21;103280.19;5030173;28;20490;-42
2023/12/18 01:01:46;;;;;;;9.77;6.30;;;;;;;16.63;51.63;103267.81;5029407;28;20112;-41
2023/12/18 01:04:12;;;;;;;12.07;7.30;;;;;;;16.62;51.86;103268.78;5027903;28;20327;-42
2023/12/18 01:06:39;;;;;;;12.27;6.78;;;;;;;16.62;52.06;103271.47;5029534;28;20055;-42
2023/12/18 01:09:08;;;;;;;12.13;6.70;;;;;;;16.62;52.30;103271.47;5028357;28;20548;-41
2023/12/18 01:11:35;;;;;;;11.85;6.53;;;;;;;16.61;51.54;103268.88;5028743;28;20053;-42
2023/12/18 01:14:02;;;;;;;12.60;6.80;;;;;;;16.60;52.48;103270.66;5024476;28;20049;-41
2023/12/18 01:16:28;;;;;;;11.35;6.88;;;;;;;16.58;51.92;103261.88;5027126;28;20053;-41
2023/12/18 01:18:55;;;;;;;9.70;6.60;;;;;;;16.59;52.28;103260.03;5026402;28;20099;-42
2023/12/18 01:21:22;;;;;;;14.45;6.63;;;;;;;16.57;51.16;103259.28;5026922;28;20054;-42
2023/12/18 01:23:48;;;;;;;10.07;6.25;;;;;;;16.56;51.42;103252.19;5025955;28;20049;-40
2023/12/18 01:26:15;;;;;;;11.75;6.72;;;;;;;16.55;51.40;103259.34;5029459;28;20057;-41
2023/12/18 01:28:43;;;;;;;9.38;6.20;;;;;;;16.55;51.62;103259.34;5028626;28;20053;-42
2023/12/18 01:31:22;;;;;;;9.35;5.97;;;;;;;16.54;51.72;103265.66;5029790;28;20443;-42
2023/12/18 01:33:52;;;;;;;12.75;6.25;;;;;;;16.54;51.62;103268.34;5028115;28;20060;-40
2023/12/18 01:36:19;;;;;;;8.73;5.68;;;;;;;16.53;52.18;103264.81;5029478;28;20053;-42
2023/12/18 01:38:46;;;;;;;9.27;6.13;;;;;;;16.53;51.28;103259.44;5027652;28;20045;-42
2023/12/18 01:41:13;;;;;;;11.82;6.63;;;;;;;16.52;51.63;103255.06;5027535;28;20042;-42
2023/12/18 01:43:39;;;;;;;9.27;6.15;;;;;;;16.51;51.39;103258.66;5023420;28;20447;-42
2023/12/18 01:46:06;;;;;;;10.73;6.20;;;;;;;16.52;52.32;103264.88;5026371;28;20049;-41
2023/12/18 01:48:33;;;;;;;8.80;5.95;;;;;;;16.52;51.78;103259.50;5026270;28;20110;-42
2023/12/18 01:51:01;;;;;;;9.77;5.75;;;;;;;16.51;51.66;103253.31;5030844;28;20045;-42
2023/12/18 01:53:31;;;;;;;11.18;6.47;;;;;;;16.50;51.44;103251.56;5027033;28;20450;-42
2023/12/18 01:56:00;;;;;;;12.50;5.97;;;;;;;16.51;52.18;103261.34;5027578;28;20148;-42
2023/12/18 01:58:28;;;;;;;9.25;5.80;;;;;;;16.49;51.45;103254.34;5023613;28;20140;-41
2023/12/18 02:00:55;;;;;;;10.80;6.50;;;;;;;16.49;51.84;103268.59;5027601;28;20096;-42
2023/12/18 02:03:23;;;;;;;11.40;5.85;;;;;;;16.49;51.62;103262.38;5029013;28;20057;-42
2023/12/18 02:05:50;;;;;;;9.60;5.35;;;;;;;16.49;51.32;103270.41;5027835;28;20045;-41
2023/12/18 02:08:16;;;;;;;10.68;5.30;;;;;;;16.48;51.71;103264.19;5029082;28;20045;-42
2023/12/18 02:10:44;;;;;;;8.70;5.75;;;;;;;16.49;51.29;103262.38;5027933;28;20103;-43
2023/12/18 02:13:10;;;;;;;11.38;5.32;;;;;;;16.47;51.74;103258.91;5028099;28;20104;-42
2023/12/18 02:15:37;;;;;;;11.63;5.85;;;;;;;16.47;51.84;103264.25;5026145;28;20077;-42
2023/12/18 02:18:04;;;;;;;10.70;5.28;;;;;;;16.46;51.88;103266.09;5030874;28;20154;-42
2023/12/18 02:20:31;;;;;;;9.77;5.22;;;;;;;16.46;52.26;103258.06;5032420;28;20065;-41
2023/12/18 02:22:57;;;;;;;11.20;6.53;;;;;;;16.46;51.59;103254.50;5022265;28;20054;-40
2023/12/18 02:25:24;;;;;;;9.32;5.32;;;;;;;16.47;51.84;103256.22;5024516;28;20049;-42
2023/12/18 02:27:51;;;;;;;9.98;5.30;;;;;;;16.45;51.94;103260.81;5029166;28;20437;-40
2023/12/18 02:30:19;;;;;;;10.73;5.35;;;;;;;16.44;51.22;103262.63;5027410;28;20169;-41
2023/12/18 02:32:46;;;;;;;8.77;5.03;;;;;;;16.45;51.67;103253.66;5024693;28;20068;-41
2023/12/18 02:35:13;;;;;;;9.98;5.32;;;;;;;16.44;51.55;103246.59;5020616;28;20379;-40
2023/12/18 02:37:40;;;;;;;10.45;5.53;;;;;;;16.45;51.96;103247.44;5025345;28;20092;-41
2023/12/18 02:40:07;;;;;;;10.27;5.07;;;;;;;16.45;51.34;103244.75;5024303;28;20057;-42
2023/12/18 02:42:33;;;;;;;10.50;4.90;;;;;;;16.43;51.80;103236.81;5027115;28;20049;-41
2023/12/18 02:45:04;;;;;;;10.52;6.07;;;;;;;16.43;52.08;103230.59;5025565;28;20430;-42
2023/12/18 02:47:31;;;;;;;9.70;5.45;;;;;;;16.43;51.16;103234.13;5029473;28;20041;-40
2023/12/18 02:49:58;;;;;;;8.38;4.72;;;;;;;16.42;51.89;103236.91;5025358;28;20050;-42
2023/12/18 02:52:24;;;;;;;8.93;4.82;;;;;;;16.42;51.60;103240.44;5021843;28;20064;-42
2023/12/18 02:54:51;;;;;;;8.43;4.70;;;;;;;16.42;51.51;103244.94;5027694;28;20045;-40
2023/12/18 02:57:18;;;;;;;9.73;5.35;;;;;;;16.42;51.18;103243.09;5029292;28;20107;-40
2023/12/18 02:59:44;;;;;;;9.10;4.93;;;;;;;16.42;51.48;103242.25;5032922;28;20056;-41
2023/12/18 03:02:11;;;;;;;10.93;5.60;;;;;;;16.42;51.94;103242.25;5030755;28;20068;-42
2023/12/18 03:04:39;;;;;;;8.40;4.70;;;;;;;16.41;51.34;103232.50;5034100;28;20045;-42
2023/12/18 03:07:06;;;;;;;8.02;4.93;;;;;;;16.42;51.92;103232.41;5030801;28;20107;-42
2023/12/18 03:09:33;;;;;;;9.30;5.22;;;;;;;16.40;51.31;103228.97;5033573;28;20044;-42
2023/12/18 03:12:00;;;;;;;7.45;4.57;;;;;;;16.40;51.09;103230.75;5029838;28;20053;-41
2023/12/18 03:14:26;;;;;;;9.57;4.85;;;;;;;16.39;52.17;103227.22;5031095;28;20041;-42
2023/12/18 03:16:53;;;;;;;7.97;4.15;;;;;;;16.40;51.19;103220.03;5030083;28;20045;-41
2023/12/18 03:19:19;;;;;;;7.68;4.22;;;;;;;16.39;52.14;103231.69;5029507;28;20103;-42
2023/12/18 03:21:47;;;;;;;8.50;4.72;;;;;;;16.39;51.59;103232.56;5029685;28;20426;-42
2023/12/18 03:24:13;;;;;;;7.45;4.55;;;;;;;16.39;51.71;103229.03;5028454;28;20057;-42
2023/12/18 03:26:40;;;;;;;8.65;4.50;;;;;;;16.39;52.30;103234.38;5027697;28;20357;-41
2023/12/18 03:29:07;;;;;;;10.40;5.55;;;;;;;16.37;51.04;103221.09;5030242;28;20056;-38
2023/12/18 03:31:34;;;;;;;10.25;4.78;;;;;;;16.37;52.00;103226.44;5026485;28;20406;-42
2023/12/18 03:34:01;;;;;;;8.80;4.38;;;;;;;16.36;51.74;103224.72;5028504;28;20045;-42
2023/12/18 03:36:28;;;;;;;7.47;3.97;;;;;;;16.35;51.69;103209.59;5030825;28;20056;-41
2023/12/18 03:38:54;;;;;;;15.10;4.53;;;;;;;16.36;52.11;103205.09;5029834;28;20056;-40
2023/12/18 03:41:21;;;;;;;8.25;4.65;;;;;;;16.35;51.37;103209.59;5033468;28;20119;-41
2023/12/18 03:43:47;;;;;;;6.60;4.10;;;;;;;16.35;51.99;103203.38;5032622;28;20046;-41
2023/12/18 03:46:14;;;;;;;9.32;4.50;;;;;;;16.35;51.65;103206.06;5029123;28;20377;-41
2023/12/18 03:48:41;;;;;;;9.55;4.45;;;;;;;16.34;51.46;103204.34;5029972;28;20045;-42
2023/12/18 03:51:07;;;;;;;9.00;4.63;;;;;;;16.33;51.32;103203.47;5036816;28;20095;-40
2023/12/18 03:53:34;;;;;;;7.18;4.15;;;;;;;16.32;51.32;103204.41;5029915;28;20041;-41
2023/12/18 03:56:00;;;;;;;7.80;4.50;;;;;;;16.32;51.09;103207.06;5029051;28;20436;-41
2023/12/18 03:58:27;;;;;;;11.63;5.05;;;;;;;16.32;51.19;103209.75;5028500;28;20122;-42
2023/12/18 04:00:54;;;;;;;7.82;4.40;;;;;;;16.32;51.33;103220.47;5027490;28;20128;-43
2023/12/18 04:03:20;;;;;;;10.73;4.93;;;;;;;16.31;51.03;103221.41;5031694;28;20045;-41
2023/12/18 04:05:47;;;;;;;7.95;4.47;;;;;;;16.30;51.92;103211.66;5032267;28;20355;-42
2023/12/18 04:08:14;;;;;;;6.38;4.05;;;;;;;16.28;52.16;103211.75;5030863;28;20060;-42
2023/12/18 04:10:40;;;;;;;9.65;4.18;;;;;;;16.28;51.33;103213.56;5031579;28;20469;-41
2023/12/18 04:13:08;;;;;;;9.35;4.90;;;;;;;16.27;51.53;103212.69;5027798;28;20049;-40
2023/12/18 04:15:34;;;;;;;8.40;4.63;;;;;;;16.26;51.96;103210.97;5028507;28;20056;-41
2023/12/18 04:18:01;;;;;;;8.80;5.05;;;;;;;16.27;50.91;103207.34;5029089;28;20053;-41
2023/12/18 04:20:28;;;;;;;8.40;4.30;;;;;;;16.26;51.60;103202.09;5034192;28;20053;-40
2023/12/18 04:22:54;;;;;;;8.00;3.95;;;;;;;16.27;50.95;103203.81;5032911;28;20080;-41
2023/12/18 04:25:22;;;;;;;9.27;4.43;;;;;;;16.26;51.61;103202.94;5029727;28;20084;-40
2023/12/18 04:27:49;;;;;;;8.50;4.00;;;;;;;16.27;51.62;103204.66;5028332;28;20060;-40
2023/12/18 04:30:16;;;;;;;10.20;4.60;;;;;;;16.27;51.73;103207.34;5026843;28;20376;-41
2023/12/18 04:32:42;;;;;;;8.95;4.00;;;;;;;16.27;51.71;103212.69;5029457;28;20153;-41
2023/12/18 04:35:09;;;;;;;7.38;4.07;;;;;;;16.29;50.86;103212.63;5043559;28;20094;-41
2023/12/18 04:37:35;;;;;;;5.70;3.20;;;;;;;16.28;51.03;103208.19;5030886;28;20045;-41
2023/12/18 04:40:05;;;;;;;6.78;4.03;;;;;;;16.27;51.93;103209.16;5028724;28;20349;-42
2023/12/18 04:42:31;;;;;;;8.55;4.18;;;;;;;16.27;50.88;103215.38;5030796;28;20049;-41
2023/12/18 04:44:58;;;;;;;12.10;4.70;;;;;;;16.27;51.74;103206.47;5028449;28;20045;-40
2023/12/18 04:47:25;;;;;;;8.68;4.28;;;;;;;16.27;52.25;103220.72;5026311;28;20461;-41
2023/12/18 04:49:52;;;;;;;5.18;3.72;;;;;;;16.27;51.18;103223.41;5029366;28;20056;-42
2023/12/18 04:52:19;;;;;;;8.15;4.38;;;;;;;16.27;51.40;103223.41;5026108;28;20041;-41
2023/12/18 04:54:45;;;;;;;6.50;4.13;;;;;;;16.26;51.69;103219.00;5031315;28;20041;-41
2023/12/18 04:57:12;;;;;;;7.22;3.88;;;;;;;16.26;51.32;103212.78;5023779;28;20049;-41
2023/12/18 04:59:40;;;;;;;8.00;3.85;;;;;;;16.26;51.37;103218.13;5029112;28;20060;-41
2023/12/18 05:02:06;;;;;;;9.40;4.35;;;;;;;16.26;51.15;103204.75;5029541;28;20396;-41
2023/12/18 05:04:33;;;;;;;7.65;3.72;;;;;;;16.25;51.17;103206.56;5029511;28;20042;-42
2023/12/18 05:07:00;;;;;;;8.82;3.85;;;;;;;16.25;50.93;103203.03;5026741;28;20049;-41
2023/12/18 05:09:27;;;;;;;10.00;4.22;;;;;;;16.25;52.00;103200.38;5027841;28;20402;-42
2023/12/18 05:11:53;;;;;;;7.07;3.70;;;;;;;16.25;51.50;103195.00;5027875;28;20052;-42
2023/12/18 05:14:20;;;;;;;7.65;3.97;;;;;;;16.24;51.68;103199.50;5028435;28;20048;-42
2023/12/18 05:16:47;;;;;;;7.35;4.15;;;;;;;16.24;51.48;103196.81;5025976;28;20107;-42
2023/12/18 05:19:13;;;;;;;7.32;3.75;;;;;;;16.24;51.60;103196.81;5028316;28;20164;-43
2023/12/18 05:21:40;;;;;;;9.45;3.83;;;;;;;16.23;51.79;103195.06;5020339;28;20056;-41
2023/12/18 05:24:07;;;;;;;7.22;4.38;;;;;;;16.23;51.03;103197.75;5023763;28;20041;-43
2023/12/18 05:26:33;;;;;;;8.70;4.07;;;;;;;16.28;51.67;103202.84;5024832;28;20049;-43
2023/12/18 05:29:00;;;;;;;8.02;3.92;;;;;;;16.39;51.21;103199.59;5027781;28;20080;-42
2023/12/18 05:31:26;;;;;;;7.25;3.88;;;;;;;16.51;51.49;103194.41;5024462;28;20080;-42
2023/12/18 05:33:53;;;;;;;7.80;4.30;;;;;;;16.65;51.20;103198.13;5024693;28;20053;-40
2023/12/18 05:36:20;;;;;;;9.10;3.13;;;;;;;16.80;50.27;103201.78;5016620;28;20053;-38
2023/12/18 05:38:47;;;;;;;9.98;4.40;;;;;;;16.92;50.53;103196.56;5022511;28;20053;-37
2023/12/18 05:41:13;;;;;;;8.25;3.75;;;;;;;17.05;50.06;103210.13;5023048;28;20077;-37
2023/12/18 05:43:40;;;;;;;6.63;3.33;;;;;;;17.17;50.04;103209.41;5025168;28;20136;-38
2023/12/18 05:46:11;;;;;;;7.28;3.65;;;;;;;17.26;50.32;103203.50;5027339;28;20041;-38
2023/12/18 05:48:37;;;;;;;7.78;3.47;;;;;;;17.36;49.49;103211.00;5028708;28;20069;-42
2023/12/18 05:51:04;;;;;;;7.75;3.83;;;;;;;17.43;49.90;103205.16;5029705;28;20053;-36
2023/12/18 05:53:31;;;;;;;7.88;4.20;;;;;;;17.48;49.45;103199.53;5026687;28;20141;-37
2023/12/18 05:55:57;;;;;;;8.38;3.83;;;;;;;17.50;49.56;103206.53;5038839;28;20140;-38
2023/12/18 05:58:24;;;;;;;8.93;4.38;;;;;;;17.51;49.39;103202.03;5031438;28;20061;-38
2023/12/18 06:00:51;;;;;;;6.45;3.35;;;;;;;17.50;49.58;103194.94;5031583;28;20773;-40
2023/12/18 06:03:17;;;;;;;8.73;3.72;;;;;;;17.48;49.42;103191.47;5030127;28;20105;-37
2023/12/18 06:05:46;;;;;;;6.53;3.85;;;;;;;17.46;49.44;103196.09;5025485;28;20046;-36
2023/12/18 06:08:13;;;;;;;9.20;4.13;;;;;;;17.44;49.45;103184.59;5022711;28;20091;-36
2023/12/18 06:10:39;;;;;;;7.93;4.20;;;;;;;17.41;49.93;103191.00;5023140;28;20061;-39
2023/12/18 06:13:06;;;;;;;7.68;3.83;;;;;;;17.39;49.44;103178.66;5023713;28;20353;-37
2023/12/18 06:15:32;;;;;;;8.70;3.78;;;;;;;17.38;50.05;103184.97;5022462;28;20185;-37
2023/12/18 06:17:59;;;;;;;7.30;4.13;;;;;;;17.35;49.78;103187.81;5030767;28;20053;-37
2023/12/18 06:20:26;;;;;;;8.02;4.10;;;;;;;17.32;49.49;103185.31;5026776;28;20060;-37
2023/12/18 06:22:52;;;;;;;8.18;3.85;;;;;;;17.31;49.30;103183.59;5032473;28;20459;-41
2023/12/18 06:25:19;;;;;;;8.27;3.67;;;;;;;17.30;49.60;103184.56;5031443;28;20124;-36
2023/12/18 06:27:46;;;;;;;5.78;3.67;;;;;;;17.27;49.87;103189.13;5031938;28;20056;-36
2023/12/18 06:30:13;;;;;;;9.23;4.38;;;;;;;17.26;49.38;103186.56;5029655;28;20079;-37
2023/12/18 06:32:40;;;;;;;8.48;4.03;;;;;;;17.23;49.62;103176.88;5033731;28;20064;-37
2023/12/18 06:35:07;;;;;;;10.52;4.60;;;;;;;17.23;49.98;103187.59;5025788;28;20038;-39
2023/12/18 06:37:34;;;;;;;5.22;3.38;;;;;;;17.22;49.45;103185.03;5025825;28;20128;-38
2023/12/18 06:40:02;;;;;;;9.02;4.28;;;;;;;17.19;49.32;103180.69;5029464;28;20107;-37
2023/12/18 06:42:28;;;;;;;11.48;4.70;;;;;;;17.18;49.87;103180.78;5023642;28;20057;-38
2023/12/18 06:44:55;;;;;;;8.15;4.32;;;;;;;17.16;49.13;103180.88;5025918;28;20073;-42
2023/12/18 06:47:22;;;;;;;8.95;4.32;;;;;;;17.12;49.05;103187.38;5035129;28;20118;-43
2023/12/18 06:49:48;;;;;;;6.80;3.80;;;;;;;17.11;49.61;103187.47;5028484;28;20136;-41
2023/12/18 06:52:15;;;;;;;8.40;4.95;;;;;;;17.07;49.24;103188.59;5027647;28;20057;-43
2023/12/18 06:54:42;;;;;;;11.63;5.00;;;;;;;17.01;49.63;103192.50;5028326;28;20828;-43
2023/12/18 06:57:11;;;;;;;8.05;4.35;;;;;;;16.95;49.29;103191.03;5027623;28;20057;-43
2023/12/18 06:59:38;;;;;;;10.88;5.43;;;;;;;16.89;49.78;103198.59;5029859;28;20060;-42
2023/12/18 07:02:05;;;;;;;5.72;4.07;;;;;;;16.84;50.28;103188.09;5029691;28;20126;-43
2023/12/18 07:04:31;;;;;;;7.63;4.13;;;;;;;16.80;49.99;103189.22;5027264;28;20053;-42
2023/12/18 07:06:59;;;;;;;6.35;3.50;;;;;;;16.86;49.87;103185.38;5027497;28;20345;-42
2023/12/18 07:09:25;;;;;;;7.97;4.10;;;;;;;16.94;50.05;103180.41;5029822;28;20084;-42
2023/12/18 07:11:52;;;;;;;7.25;3.80;;;;;;;17.05;50.33;103182.47;5031728;28;20099;-43
2023/12/18 07:14:18;;;;;;;7.60;3.55;;;;;;;17.15;50.39;103184.50;5022493;28;20049;-37
2023/12/18 07:16:45;;;;;;;6.95;4.07;;;;;;;17.27;49.91;103172.19;5021808;28;20045;-38
2023/12/18 07:19:14;;;;;;;8.93;4.35;;;;;;;17.41;49.43;103168.72;5027394;28;20123;-37
2023/12/18 07:21:40;;;;;;;6.47;3.70;;;;;;;17.52;49.37;103174.25;5028466;28;20477;-38
2023/12/18 07:24:07;;;;;;;6.53;4.18;;;;;;;17.63;49.45;103173.59;5026835;28;20046;-37
2023/12/18 07:26:34;;;;;;;10.65;4.88;;;;;;;17.74;49.33;103176.50;5026265;28;20053;-37
2023/12/18 07:29:00;;;;;;;7.72;4.15;;;;;;;17.83;49.04;103175.09;5028246;28;20107;-36
2023/12/18 07:31:27;;;;;;;8.43;4.30;;;;;;;17.92;49.35;103171.81;5030305;28;20048;-39
2023/12/18 07:33:54;;;;;;;6.55;3.70;;;;;;;18.01;48.93;103173.97;5031264;28;20045;-40
2023/12/18 07:36:21;;;;;;;9.90;4.10;;;;;;;18.09;48.95;103168.97;5030050;28;20397;-38
2023/12/18 07:38:48;;;;;;;7.47;3.60;;;;;;;18.15;48.84;103176.63;5027005;28;20228;-39
2023/12/18 07:41:15;;;;;;;7.32;3.40;;;;;;;18.21;48.73;103169.97;5017719;28;20050;-38
2023/12/18 07:43:42;;;;;;;7.35;3.70;;;;;;;18.24;48.94;103172.47;5017604;28;20622;-39
2023/12/18 07:46:19;;;;;;;8.20;3.60;;;;;;;18.24;48.42;103167.09;5039335;28;20547;-37
2023/12/18 07:48:48;;;;;;;4.60;3.60;;;;;;;18.24;48.64;103176.00;5028104;28;20084;-38
2023/12/18 07:51:15;;;;;;;8.85;4.10;;;;;;;18.22;48.04;103169.91;5032571;28;20045;-38
2023/12/18 07:53:42;;;;;;;7.97;3.65;;;;;;;18.21;48.15;103178.03;5027946;28;20045;-38
2023/12/18 07:56:08;;;;;;;11.30;3.63;;;;;;;18.15;48.51;103184.66;5028655;28;20843;-38
2023/12/18 07:58:35;;;;;;;7.35;3.53;;;;;;;18.09;48.41;103166.28;5026915;28;20686;-40
2023/12/18 08:01:03;;;;;;;6.72;3.67;;;;;;;18.04;48.10;103168.38;5027194;28;20041;-37
2023/12/18 08:03:30;;;;;;;10.35;3.90;;;;;;;18.00;48.24;103172.22;5031967;28;20355;-37
2023/12/18 08:05:57;;;;;;;7.18;3.88;;;;;;;17.96;48.43;103176.03;5022578;28;20355;-39
2023/12/18 08:08:24;;;;;;;5.65;3.45;;;;;;;17.93;48.44;103176.22;5016675;28;20153;-41
2023/12/18 08:10:50;;;;;;;5.38;3.83;;;;;;;17.93;48.40;103162.81;5025494;28;20049;-39
2023/12/18 08:13:17;;;;;;;8.15;3.70;;;;;;;17.97;49.04;103173.28;5024902;28;20046;-38
2023/12/18 08:15:43;;;;;;;6.97;3.88;;;;;;;18.05;48.70;103174.59;5029456;28;20589;-37
2023/12/18 08:18:12;;;;;;;8.45;3.92;;;;;;;18.10;48.34;103176.06;5025507;28;20449;-37
2023/12/18 08:20:39;;;;;;;8.55;4.13;;;;;;;18.16;48.39;103172.09;5029628;28;20131;-36
2023/12/18 08:23:05;;;;;;;6.97;3.85;;;;;;;18.21;48.17;103173.56;5026373;28;20129;-41
2023/12/18 08:25:32;;;;;;;7.47;4.07;;;;;;;18.29;48.44;103174.84;5033087;28;20049;-37
2023/12/18 08:27:59;;;;;;;8.07;3.70;;;;;;;18.35;48.50;103177.16;5022107;28;20054;-36
2023/12/18 08:30:27;;;;;;;7.13;4.13;;;;;;;18.39;48.26;103176.00;5019910;28;20308;-38
2023/12/18 08:32:54;;;;;;;10.45;4.60;;;;;;;18.46;48.45;103171.97;5027088;28;20453;-36
2023/12/18 08:35:20;;;;;;;10.43;4.10;;;;;;;18.52;48.40;103174.25;5030736;28;20437;-37
2023/12/18 08:37:47;;;;;;;7.95;4.15;;;;;;;18.56;48.33;103170.38;5021821;28;20082;-36
2023/12/18 08:40:14;;;;;;;7.38;4.28;;;;;;;18.59;48.16;103167.50;5025534;28;20471;-38
2023/12/18 08:42:40;;;;;;;9.77;3.65;;;;;;;18.62;48.41;103164.63;5026544;28;20072;-40
2023/12/18 08:45:07;;;;;;;9.20;3.85;;;;;;;18.63;47.96;103176.22;5022635;28;20099;-40
2023/12/18 08:47:34;;;;;;;7.35;4.10;;;;;;;18.63;48.03;103171.72;5025410;28;20049;-37
2023/12/18 08:50:01;;;;;;;9.48;3.60;;;;;;;18.61;47.64;103165.56;5027126;28;20055;-38
2023/12/18 08:52:27;;;;;;;7.50;3.58;;;;;;;18.59;47.80;103163.97;5021063;28;20053;-40
2023/12/18 08:54:54;;;;;;;7.97;4.22;;;;;;;18.55;47.62;103162.44;5020460;28;20649;-37
2023/12/18 08:57:21;;;;;;;8.48;3.95;;;;;;;18.49;47.60;103152.94;5025260;28;20124;-36
2023/12/18 08:59:50;;;;;;;8.45;4.40;;;;;;;18.44;47.65;103164.00;5028704;28;20536;-38
2023/12/18 09:02:16;;;;;;;7.18;4.20;;;;;;;18.40;48.13;103164.28;5026984;28;20063;-39
2023/12/18 09:04:43;;;;;;;9.30;4.03;;;;;;;18.34;47.84;103159.34;5026270;28;20053;-39
2023/12/18 09:07:10;;;;;;;9.60;4.28;;;;;;;18.28;47.74;103148.97;5022833;28;20453;-37
2023/12/18 09:09:39;;;;;;;7.32;4.07;;;;;;;18.23;48.15;103151.97;5018308;28;20050;-36
2023/12/18 09:12:07;;;;;;;7.25;3.85;;;;;;;18.19;47.93;103155.81;5024004;28;20057;-37
2023/12/18 09:14:35;;;;;;;8.10;3.85;;;;;;;18.14;48.22;103150.75;5022527;28;20077;-37
2023/12/18 09:17:03;;;;;;;7.10;4.10;;;;;;;18.10;48.22;103149.22;5024824;28;20975;-38
2023/12/18 09:19:29;;;;;;;6.53;3.40;;;;;;;18.06;48.03;103155.72;5025157;28;20056;-39
2023/12/18 09:21:56;;;;;;;8.70;4.25;;;;;;;18.03;48.21;103144.34;5026485;28;20056;-37
2023/12/18 09:24:25;;;;;;;7.40;4.32;;;;;;;17.99;48.59;103146.34;5029581;28;20057;-36
2023/12/18 09:26:52;;;;;;;8.98;4.22;;;;;;;17.98;48.50;103147.31;5020845;28;20089;-36
2023/12/18 09:29:19;;;;;;;8.95;4.30;;;;;;;18.00;48.19;103148.06;5021026;28;20049;-39
2023/12/18 09:31:46;;;;;;;7.13;3.88;;;;;;;18.01;48.50;103139.06;5025352;28;20049;-35
2023/12/18 09:34:13;;;;;;;9.27;4.78;;;;;;;18.05;48.09;103143.28;5031573;28;20059;-37
2023/12/18 09:36:40;;;;;;;8.57;4.43;;;;;;;18.08;48.03;103142.22;5027219;28;20045;-40
2023/12/18 09:39:07;;;;;;;7.28;3.80;;;;;;;18.12;48.05;103136.53;5032391;28;20049;-38
2023/12/18 09:41:33;;;;;;;7.47;4.00;;;;;;;18.16;47.73;103135.38;5030793;28;20057;-38
2023/12/18 09:44:00;;;;;;;10.18;3.88;;;;;;;18.19;48.06;103134.34;5023921;28;20061;-38
2023/12/18 09:46:27;;;;;;;9.40;3.90;;;;;;;18.22;48.20;103128.78;5019570;28;20081;-38
2023/12/18 09:48:54;;;;;;;7.75;4.22;;;;;;;18.25;47.78;103128.56;5028422;28;20080;-37
2023/12/18 09:51:22;;;;;;;5.95;4.03;;;;;;;18.26;47.72;103133.00;5019535;28;20057;-37
2023/12/18 09:53:51;;;;;;;5.70;3.60;;;;;;;18.25;47.82;103132.13;5026154;28;20049;-37
2023/12/18 09:56:23;;;;;;;7.38;4.07;;;;;;;18.24;47.75;103129.53;5026459;28;20047;-37
2023/12/18 09:58:54;;;;;;;8.40;3.50;;;;;;;18.23;47.75;103134.03;5025027;28;20066;-37
2023/12/18 10:01:22;;;;;;;7.18;3.88;;;;;;;18.21;47.99;103133.28;5026576;28;20112;-38
2023/12/18 10:03:49;;;;;;;7.60;4.03;;;;;;;18.18;47.90;103125.44;5027438;28;20041;-37
2023/12/18 10:06:17;;;;;;;5.90;3.50;;;;;;;18.15;47.92;103119.38;5029797;28;20121;-39
2023/12/18 10:08:44;;;;;;;7.10;3.40;;;;;;;18.12;47.74;103120.44;5029766;28;20112;-37
2023/12/18 10:11:24;;;;;;;8.45;3.97;;;;;;;18.07;48.50;103106.47;5026547;28;20133;-39
2023/12/18 10:13:52;;;;;;;9.10;3.22;;;;;;;18.07;48.07;103113.66;5022649;28;20107;-37
2023/12/18 10:16:18;;;;;;;8.30;3.78;;;;;;;18.04;48.40;103111.16;5027176;28;20093;-38
2023/12/18 10:18:45;;;;;;;6.78;3.42;;;;;;;18.01;48.29;103109.56;5029568;28;20080;-37
2023/12/18 10:21:12;;;;;;;7.55;3.83;;;;;;;17.99;48.01;103106.09;5027783;28;20509;-39
2023/12/18 10:23:39;;;;;;;6.68;3.90;;;;;;;17.96;48.51;103100.91;5029837;28;20057;-36
2023/12/18 10:26:06;;;;;;;8.30;3.85;;;;;;;17.94;48.31;103094.81;5027650;28;20133;-39
2023/12/18 10:28:32;;;;;;;5.90;3.63;;;;;;;17.91;48.37;103095.84;5031191;28;20137;-39
2023/12/18 10:30:59;;;;;;;8.27;4.15;;;;;;;17.89;48.41;103095.09;5027673;28;20061;-37
2023/12/18 10:33:26;;;;;;;9.98;4.05;;;;;;;17.87;48.82;103091.63;5029158;28;20136;-38
2023/12/18 10:35:53;;;;;;;6.97;3.85;;;;;;;17.86;48.70;103089.06;5032099;28;20426;-38
2023/12/18 10:38:27;;;;;;;6.30;3.38;;;;;;;17.84;48.49;103085.59;5023627;28;20054;-36
2023/12/18 10:40:57;;;;;;;9.13;3.88;;;;;;;17.85;48.76;103088.22;5029594;28;20053;-37
2023/12/18 10:43:24;;;;;;;6.18;3.42;;;;;;;17.90;48.45;103082.53;5032132;28;20084;-37
2023/12/18 10:45:54;;;;;;;7.50;4.30;;;;;;;17.97;48.46;103084.75;5028089;28;20042;-38
2023/12/18 10:48:20;;;;;;;9.55;3.92;;;;;;;18.04;48.05;103082.50;5024623;28;20477;-40
2023/12/18 10:50:54;;;;;;;7.85;3.78;;;;;;;18.12;48.61;103073.97;5026826;28;20049;-37
2023/12/18 10:53:22;;;;;;;8.35;4.20;;;;;;;18.20;48.70;103075.19;5030694;28;20050;-38
2023/12/18 10:55:49;;;;;;;9.73;3.88;;;;;;;18.27;48.08;103072.97;5024083;28;20414;-39
2023/12/18 10:58:18;;;;;;;6.10;3.63;;;;;;;18.37;48.64;103067.84;5024887;28;20062;-39
2023/12/18 11:00:45;;;;;;;5.93;3.30;;;;;;;18.43;47.70;103070.13;5021184;28;20053;-37
2023/12/18 11:03:13;;;;;;;4.88;3.30;;;;;;;18.49;47.96;103064.31;5027162;28;20056;-38
2023/12/18 11:05:41;;;;;;;6.57;3.25;;;;;;;18.53;47.94;103073.03;5026324;28;20061;-38
2023/12/18 11:08:10;;;;;;;6.57;3.67;;;;;;;18.56;47.90;103065.66;5023349;28;20148;-37
2023/12/18 11:10:37;;;;;;;8.35;3.88;;;;;;;18.59;47.85;103067.28;5027162;28;20118;-39
2023/12/18 11:13:09;;;;;;;6.20;3.17;;;;;;;18.58;48.38;103058.38;5028855;28;20045;-37
2023/12/18 11:15:50;;;;;;;5.35;3.22;;;;;;;18.59;48.09;103045.78;5031335;28;20308;-39
2023/12/18 11:18:35;;;;;;;9.57;3.70;;;;;;;18.57;47.57;103051.25;5026237;28;20053;-38
2023/12/18 11:21:02;;;;;;;9.77;4.30;;;;;;;18.54;47.77;103051.47;5023320;28;20089;-38
2023/12/18 11:23:39;;;;;;;11.77;4.68;;;;;;;18.48;47.65;103047.34;5022405;28;20442;-40